createdAt,value
2022-11-24T00:00:53.461Z,96953.53
2022-11-24T00:03:21.309Z,96951.78
2022-11-24T00:05:48.749Z,96944.41
2022-11-24T00:08:15.614Z,96955.34
2022-11-24T00:10:42.549Z,96955.75
2022-11-24T00:13:09.449Z,96957.69
2022-11-24T00:15:36.356Z,96952.25
2022-11-24T00:18:03.283Z,96949.97
2022-11-24T00:20:30.267Z,96947.00
2022-11-24T00:22:57.303Z,96945.78
2022-11-24T00:25:24.175Z,96944.56
2022-11-24T00:27:52.553Z,96942.47
2022-11-24T00:30:19.406Z,96945.09
2022-11-24T00:32:46.287Z,96944.91
2022-11-24T00:35:13.172Z,96946.09
2022-11-24T00:37:40.012Z,96954.00
2022-11-24T00:40:07.738Z,96956.06
2022-11-24T00:42:34.633Z,96956.53
2022-11-24T00:45:12.900Z,96960.03
2022-11-24T00:47:40.644Z,96959.22
2022-11-24T00:50:08.015Z,96954.66
2022-11-24T00:52:34.943Z,96950.66
2022-11-24T00:55:01.840Z,96951.72
2022-11-24T00:57:28.725Z,96951.50
2022-11-24T00:59:55.575Z,96951.53
2022-11-24T01:02:22.479Z,96947.19
2022-11-24T01:04:49.386Z,96951.91
2022-11-24T01:07:16.276Z,96950.47
2022-11-24T01:09:45.706Z,96955.38
2022-11-24T01:12:12.571Z,96961.91
2022-11-24T01:14:39.442Z,96961.63
2022-11-24T01:17:06.448Z,96965.38
2022-11-24T01:19:33.462Z,96951.59
2022-11-24T01:22:00.308Z,96958.34
2022-11-24T01:24:27.173Z,96950.84
2022-11-24T01:26:54.102Z,96953.28
2022-11-24T01:29:21.133Z,96947.16
2022-11-24T01:31:48.098Z,96950.47
2022-11-24T01:34:15.017Z,96949.47
2022-11-24T01:36:41.929Z,96951.88
2022-11-24T01:39:08.895Z,96936.59
2022-11-24T01:41:35.939Z,96937.06
2022-11-24T01:44:24.632Z,96948.59
2022-11-24T01:47:07.262Z,96943.63
2022-11-24T01:49:41.190Z,96935.84
2022-11-24T01:52:18.946Z,96941.81
2022-11-24T01:54:51.939Z,96931.50
2022-11-24T01:57:26.351Z,96934.94
2022-11-24T01:59:59.032Z,96938.06
2022-11-24T02:02:29.660Z,96934.78
2022-11-24T02:05:06.073Z,96932.16
2022-11-24T02:07:33.965Z,96925.59
2022-11-24T02:10:09.797Z,96924.78
2022-11-24T02:12:38.056Z,96928.72
2022-11-24T02:15:05.444Z,96926.25
2022-11-24T02:17:32.329Z,96922.31
2022-11-24T02:20:02.280Z,96923.94
2022-11-24T02:22:34.828Z,96926.50
2022-11-24T02:25:15.557Z,96927.63
2022-11-24T02:27:49.382Z,96921.41
2022-11-24T02:30:19.517Z,96921.47
2022-11-24T02:32:46.379Z,96918.38
2022-11-24T02:35:13.811Z,96916.91
2022-11-24T02:37:40.763Z,96917.91
2022-11-24T02:40:08.495Z,96910.69
2022-11-24T02:42:40.478Z,96916.09
2022-11-24T02:45:09.560Z,96926.13
2022-11-24T02:47:36.417Z,96929.03
2022-11-24T02:50:03.875Z,96924.63
2022-11-24T02:52:30.745Z,96920.84
2022-11-24T02:54:57.708Z,96926.59
2022-11-24T02:57:24.593Z,96937.09
2022-11-24T02:59:51.512Z,96927.88
2022-11-24T03:02:18.415Z,96928.84
2022-11-24T03:04:45.297Z,96930.84
2022-11-24T03:07:12.237Z,96929.84
2022-11-24T03:09:39.253Z,96934.13
2022-11-24T03:12:06.732Z,96934.91
2022-11-24T03:14:33.904Z,96941.66
2022-11-24T03:17:00.902Z,96940.94
2022-11-24T03:19:27.756Z,96941.56
2022-11-24T03:21:54.623Z,96942.56
2022-11-24T03:24:21.591Z,96934.63
2022-11-24T03:26:48.498Z,96935.47
2022-11-24T03:29:15.405Z,96949.69
2022-11-24T03:31:42.446Z,96949.84
2022-11-24T03:34:09.696Z,96940.88
2022-11-24T03:36:36.571Z,96948.44
2022-11-24T03:39:03.554Z,96947.72
2022-11-24T03:41:30.383Z,96960.91
2022-11-24T03:43:57.239Z,96960.25
2022-11-24T03:46:24.110Z,96966.13
2022-11-24T03:48:50.980Z,96978.50
2022-11-24T03:51:17.851Z,96982.19
2022-11-24T03:53:44.712Z,96988.94
2022-11-24T03:56:11.546Z,96984.56
2022-11-24T03:58:38.472Z,96989.19
2022-11-24T04:01:05.439Z,96986.31
2022-11-24T04:03:32.324Z,96988.63
2022-11-24T04:05:59.194Z,96987.81
2022-11-24T04:08:26.115Z,96986.69
2022-11-24T04:10:54.397Z,96985.28
2022-11-24T04:13:23.862Z,96990.00
2022-11-24T04:15:51.319Z,96988.44
2022-11-24T04:18:18.574Z,96997.09
2022-11-24T04:20:45.746Z,96997.75
2022-11-24T04:23:12.597Z,97001.88
2022-11-24T04:25:39.635Z,96998.56
2022-11-24T04:28:08.824Z,97007.75
2022-11-24T04:30:36.316Z,97007.59
2022-11-24T04:33:03.253Z,97012.41
2022-11-24T04:35:30.293Z,97022.44
2022-11-24T04:37:57.267Z,97014.03
2022-11-24T04:40:24.152Z,97017.56
2022-11-24T04:42:55.252Z,97013.25
2022-11-24T04:45:23.317Z,97016.63
2022-11-24T04:47:50.308Z,97020.50
2022-11-24T04:50:17.313Z,97017.41
2022-11-24T04:52:44.147Z,97013.88
2022-11-24T04:55:11.307Z,97015.28
2022-11-24T04:57:38.779Z,97016.91
2022-11-24T05:00:07.692Z,97019.09
2022-11-24T05:02:34.828Z,97024.72
2022-11-24T05:05:01.705Z,97030.66
2022-11-24T05:07:28.653Z,97036.56
2022-11-24T05:10:14.110Z,97042.50
2022-11-24T05:12:41.135Z,97049.91
2022-11-24T05:15:08.589Z,97051.41
2022-11-24T05:17:37.663Z,97046.78
2022-11-24T05:20:07.228Z,97055.28
2022-11-24T05:22:34.329Z,97047.06
2022-11-24T05:25:01.816Z,97054.47
2022-11-24T05:27:29.163Z,97052.56
2022-11-24T05:29:56.354Z,97057.78
2022-11-24T05:32:23.727Z,97060.78
2022-11-24T05:34:56.595Z,97061.97
2022-11-24T05:37:25.683Z,97057.53
2022-11-24T05:39:54.665Z,97057.88
2022-11-24T05:42:46.197Z,97060.88
2022-11-24T05:45:19.491Z,97059.84
2022-11-24T05:47:47.157Z,97063.25
2022-11-24T05:50:17.047Z,97065.91
2022-11-24T05:52:44.082Z,97066.22
2022-11-24T05:55:15.198Z,97063.25
2022-11-24T05:57:42.754Z,97067.50
2022-11-24T06:00:30.097Z,97075.03
2022-11-24T06:02:58.540Z,97072.03
2022-11-24T06:05:26.683Z,97082.03
2022-11-24T06:07:54.217Z,97084.38
2022-11-24T06:10:24.052Z,97092.59
2022-11-24T06:12:51.179Z,97094.63
2022-11-24T06:15:18.211Z,97104.03
2022-11-24T06:17:45.331Z,97096.00
2022-11-24T06:20:12.404Z,97097.47
2022-11-24T06:22:39.374Z,97099.03
2022-11-24T06:25:06.506Z,97099.25
2022-11-24T06:27:33.440Z,97106.28
2022-11-24T06:30:00.923Z,97101.63
2022-11-24T06:32:27.867Z,97114.13
2022-11-24T06:34:54.728Z,97118.75
2022-11-24T06:37:21.658Z,97118.50
2022-11-24T06:39:49.402Z,97115.75
2022-11-24T06:42:19.200Z,97109.50
2022-11-24T06:44:47.508Z,97113.63
2022-11-24T06:47:15.390Z,97115.44
2022-11-24T06:49:42.220Z,97111.84
2022-11-24T06:52:09.165Z,97121.34
2022-11-24T06:54:36.403Z,97119.44
2022-11-24T06:57:03.691Z,97117.13
2022-11-24T06:59:30.574Z,97120.91
2022-11-24T07:01:57.651Z,97120.59
2022-11-24T07:04:24.592Z,97118.50
2022-11-24T07:06:51.448Z,97118.22
2022-11-24T07:09:18.541Z,97110.06
2022-11-24T07:11:45.516Z,97114.03
2022-11-24T07:14:12.826Z,97111.97
2022-11-24T07:16:40.320Z,97111.63
2022-11-24T07:19:07.205Z,97105.91
2022-11-24T07:21:34.172Z,97099.50
2022-11-24T07:24:01.137Z,97100.03
2022-11-24T07:26:28.176Z,97105.59
2022-11-24T07:28:55.121Z,97099.22
2022-11-24T07:31:25.335Z,97094.63
2022-11-24T07:33:54.022Z,97097.28
2022-11-24T07:36:22.276Z,97099.06
2022-11-24T07:38:49.540Z,97098.59
2022-11-24T07:41:19.641Z,97096.13
2022-11-24T07:43:47.269Z,97093.69
2022-11-24T07:46:15.893Z,97105.00
2022-11-24T07:48:42.928Z,97102.69
2022-11-24T07:51:09.976Z,97109.72
2022-11-24T07:53:37.654Z,97110.72
2022-11-24T07:56:06.518Z,97117.94
2022-11-24T07:58:36.109Z,97120.25
2022-11-24T08:01:29.322Z,97124.47
2022-11-24T08:03:56.356Z,97117.28
2022-11-24T08:06:26.138Z,97106.91
2022-11-24T08:08:56.855Z,97115.31
2022-11-24T08:11:24.372Z,97113.16
2022-11-24T08:13:51.691Z,97111.22
2022-11-24T08:16:20.465Z,97113.41
2022-11-24T08:18:52.218Z,97121.50
2022-11-24T08:21:19.814Z,97115.59
2022-11-24T08:23:46.813Z,97115.56
2022-11-24T08:26:17.785Z,97114.22
2022-11-24T08:28:46.175Z,97105.59
2022-11-24T08:31:15.560Z,97114.31
2022-11-24T08:33:43.087Z,97109.53
2022-11-24T08:36:15.554Z,97112.66
2022-11-24T08:38:43.231Z,97105.09
2022-11-24T08:41:13.485Z,97108.41
2022-11-24T08:43:41.083Z,97107.22
2022-11-24T08:46:11.348Z,97107.56
2022-11-24T08:48:38.492Z,97117.25
2022-11-24T08:51:13.724Z,97111.69
2022-11-24T08:53:41.356Z,97108.25
2022-11-24T08:56:09.703Z,97116.78
2022-11-24T08:58:37.594Z,97111.69
2022-11-24T09:01:16.269Z,97123.03
2022-11-24T09:03:50.072Z,97133.34
2022-11-24T09:06:22.988Z,97120.25
2022-11-24T09:08:50.162Z,97123.69
2022-11-24T09:11:17.825Z,97118.91
2022-11-24T09:13:44.936Z,97117.25
2022-11-24T09:16:18.281Z,97118.25
2022-11-24T09:18:45.475Z,97114.50
2022-11-24T09:21:20.885Z,97117.13
2022-11-24T09:23:49.554Z,97115.31
2022-11-24T09:26:20.202Z,97108.06
2022-11-24T09:28:48.224Z,97108.41
2022-11-24T09:31:17.884Z,97118.91
2022-11-24T09:33:45.678Z,97118.38
2022-11-24T09:36:14.130Z,97118.88
2022-11-24T09:38:41.425Z,97119.22
2022-11-24T09:41:39.404Z,97121.84
2022-11-24T09:44:31.198Z,97114.63
2022-11-24T10:18:03.790Z,97121.03
2022-11-24T10:20:30.681Z,97117.59
2022-11-24T10:23:39.919Z,97114.66
2022-11-24T10:26:20.171Z,97118.25
2022-11-24T10:28:55.917Z,97119.56
2022-11-24T10:31:31.387Z,97113.66
2022-11-24T10:34:10.522Z,97115.63
2022-11-24T10:36:49.594Z,97127.44
2022-11-24T10:39:36.600Z,97128.13
2022-11-24T10:42:15.873Z,97131.72
2022-11-24T10:44:43.670Z,97130.41
2022-11-24T10:47:22.969Z,97126.13
2022-11-24T10:49:56.016Z,97132.03
2022-11-24T10:52:25.011Z,97132.03
2022-11-24T10:55:00.190Z,97126.94
2022-11-24T10:57:38.519Z,97143.69
2022-11-24T11:00:25.714Z,97140.09
2022-11-24T11:03:11.153Z,97136.94
2022-11-24T11:05:44.538Z,97133.31
2022-11-24T11:08:14.458Z,97131.31
2022-11-24T11:10:43.110Z,97132.97
2022-11-24T11:13:30.359Z,97138.50
2022-11-24T11:15:58.855Z,97133.56
2022-11-24T11:18:33.649Z,97145.72
2022-11-24T11:21:02.607Z,97136.00
2022-11-24T11:23:32.660Z,97131.56
2022-11-24T11:26:18.042Z,97131.56
2022-11-24T11:35:12.242Z,97122.41
2022-11-24T11:37:39.307Z,97125.09
2022-11-24T11:40:16.867Z,97124.09
2022-11-24T11:43:10.127Z,97127.72
2022-11-24T11:45:45.539Z,97125.09
2022-11-24T11:48:32.492Z,97128.22
2022-11-24T11:51:26.915Z,97126.25
2022-11-24T11:54:11.645Z,97125.78
2022-11-24T11:56:45.313Z,97128.59
2022-11-24T11:59:21.225Z,97124.81
2022-11-24T12:01:56.915Z,97121.66
2022-11-24T12:04:50.695Z,97128.53
2022-11-24T12:07:36.149Z,97137.16
2022-11-24T12:10:20.942Z,97135.00
2022-11-24T12:12:50.858Z,97142.16
2022-11-24T12:15:52.757Z,97133.13
2022-11-24T12:19:14.094Z,97142.44
2022-11-24T12:22:06.752Z,97134.41
2022-11-24T12:25:23.232Z,97137.84
2022-11-24T12:28:11.477Z,97137.81
2022-11-24T12:30:47.589Z,97144.06
2022-11-24T12:33:28.191Z,97152.38
2022-11-24T12:36:22.972Z,97142.53
2022-11-24T12:39:24.848Z,97148.22
2022-11-24T12:42:21.228Z,97143.16
2022-11-24T12:44:54.011Z,97148.88
2022-11-24T12:47:47.324Z,97147.22
2022-11-24T12:50:19.079Z,97150.22
2022-11-24T12:52:58.594Z,97154.63
2022-11-24T12:55:28.013Z,97160.09
2022-11-24T12:58:19.690Z,97145.44
2022-11-24T13:00:55.573Z,97153.63
2022-11-24T13:03:36.848Z,97141.81
2022-11-24T13:06:23.166Z,97146.72
2022-11-24T13:08:50.504Z,97138.97
2022-11-24T13:11:23.074Z,97148.59
2022-11-24T13:14:01.200Z,97137.78
2022-11-24T13:16:44.380Z,97143.50
2022-11-24T13:19:24.946Z,97138.97
2022-11-24T13:22:09.734Z,97145.59
2022-11-24T13:24:39.465Z,97149.53
2022-11-24T13:27:16.029Z,97157.31
2022-11-24T13:29:48.459Z,97163.03
2022-11-24T13:32:15.472Z,97163.34
2022-11-24T13:34:50.015Z,97161.16
2022-11-24T13:37:33.553Z,97167.13
2022-11-24T13:40:11.780Z,97168.94
2022-11-24T13:43:02.311Z,97164.50
2022-11-24T13:45:41.805Z,97169.75
2022-11-24T13:48:21.466Z,97166.22
2022-11-24T13:50:53.312Z,97169.00
2022-11-24T13:53:47.771Z,97176.00
2022-11-24T13:56:17.337Z,97170.66
2022-11-24T13:58:47.810Z,97180.81
2022-11-24T14:01:22.650Z,97184.56
2022-11-24T14:06:55.090Z,97186.34
2022-11-24T14:09:25.433Z,97173.41
2022-11-24T14:12:16.638Z,97177.81
2022-11-24T14:14:46.291Z,97183.84
2022-11-24T14:17:20.950Z,97182.94
2022-11-24T14:19:50.445Z,97183.06
2022-11-24T14:22:24.587Z,97178.94
2022-11-24T14:24:57.150Z,97176.72
2022-11-24T14:27:37.056Z,97183.56
2022-11-24T14:30:09.673Z,97187.59
2022-11-24T14:32:37.896Z,97183.88
2022-11-24T14:35:24.575Z,97201.03
2022-11-24T14:37:51.819Z,97200.06
2022-11-24T14:40:40.515Z,97198.44
2022-11-24T14:43:36.595Z,97201.84
2022-11-24T14:46:10.065Z,97196.66
2022-11-24T14:48:39.374Z,97207.50
2022-11-24T14:51:11.452Z,97211.06
2022-11-24T14:53:45.565Z,97209.13
2022-11-24T14:56:37.747Z,97214.34
2022-11-24T14:59:21.395Z,97218.19
2022-11-24T15:01:48.585Z,97221.63
2022-11-24T15:07:27.177Z,97217.94
2022-11-24T15:09:59.390Z,97217.78
2022-11-24T15:12:42.761Z,97215.59
2022-11-24T15:15:15.708Z,97219.00
2022-11-24T15:17:48.821Z,97218.75
2022-11-24T15:20:32.129Z,97222.19
2022-11-24T15:23:20.988Z,97215.28
2022-11-24T15:25:50.150Z,97207.47
2022-11-24T15:28:17.098Z,97214.06
2022-11-24T15:30:44.044Z,97214.19
2022-11-24T15:33:16.824Z,97206.22
2022-11-24T15:35:44.591Z,97207.19
2022-11-24T15:38:12.289Z,97211.59
2022-11-24T15:40:40.127Z,97209.13
2022-11-24T15:43:22.095Z,97222.84
2022-11-24T15:45:49.414Z,97210.78
2022-11-24T15:48:18.206Z,97213.66
2022-11-24T15:50:46.971Z,97221.47
2022-11-24T15:53:28.839Z,97222.75
2022-11-24T15:55:59.039Z,97225.63
2022-11-24T15:58:26.095Z,97216.56
2022-11-24T16:00:53.867Z,97218.75
2022-11-24T16:06:10.394Z,97229.19
2022-11-24T16:08:37.284Z,97227.91
2022-11-24T16:11:04.152Z,97230.81
2022-11-24T16:13:31.044Z,97242.34
2022-11-24T16:15:58.023Z,97241.78
2022-11-24T16:18:25.024Z,97248.25
2022-11-24T16:20:51.986Z,97248.09
2022-11-24T16:23:19.407Z,97240.94
2022-11-24T16:25:46.336Z,97258.50
2022-11-24T16:28:13.177Z,97259.06
2022-11-24T16:30:40.094Z,97260.66
2022-11-24T16:33:06.988Z,97266.31
2022-11-24T16:35:34.108Z,97270.94
2022-11-24T16:38:01.533Z,97270.28
2022-11-24T16:40:28.806Z,97277.78
2022-11-24T16:42:58.135Z,97284.34
2022-11-24T16:45:25.097Z,97289.44
2022-11-24T16:47:52.054Z,97287.22
2022-11-24T16:50:18.930Z,97289.25
2022-11-24T16:52:45.850Z,97297.47
2022-11-24T16:55:14.328Z,97301.16
2022-11-24T16:57:41.366Z,97297.16
2022-11-24T17:00:09.564Z,97296.84
2022-11-24T17:02:36.610Z,97299.03
2022-11-24T17:05:03.707Z,97295.00
2022-11-24T17:07:31.448Z,97298.84
2022-11-24T17:10:00.726Z,97298.56
2022-11-24T17:12:27.884Z,97293.72
2022-11-24T17:15:24.537Z,97295.59
2022-11-24T17:18:08.393Z,97300.28
2022-11-24T17:20:31.599Z,97291.06
2022-11-24T17:22:58.516Z,97291.31
2022-11-24T17:25:25.400Z,97294.84
2022-11-24T17:27:52.939Z,97297.00
2022-11-24T17:30:19.921Z,97303.31
2022-11-24T17:32:46.810Z,97305.22
2022-11-24T17:35:13.916Z,97299.44
2022-11-24T17:37:41.181Z,97301.22
2022-11-24T17:40:27.245Z,97309.97
2022-11-24T17:42:58.307Z,97298.84
2022-11-24T17:45:25.629Z,97302.53
2022-11-24T17:47:52.593Z,97307.63
2022-11-24T17:50:25.177Z,97302.78
2022-11-24T17:52:53.298Z,97308.13
2022-11-24T17:55:20.202Z,97308.94
2022-11-24T17:57:47.097Z,97313.34
2022-11-24T18:00:14.644Z,97300.69
2022-11-24T18:02:42.171Z,97307.56
2022-11-24T18:05:09.323Z,97311.00
2022-11-24T18:07:37.074Z,97308.63
2022-11-24T18:10:04.518Z,97303.19
2022-11-24T18:12:32.463Z,97301.50
2022-11-24T18:14:59.434Z,97293.47
2022-11-24T18:17:26.571Z,97295.56
2022-11-24T18:19:53.530Z,97290.03
2022-11-24T18:22:36.629Z,97293.19
2022-11-24T18:25:07.621Z,97293.53
2022-11-24T18:27:34.568Z,97292.81
2022-11-24T18:30:01.514Z,97300.41
2022-11-24T18:32:28.429Z,97295.19
2022-11-24T18:34:55.643Z,97294.59
2022-11-24T18:37:22.645Z,97301.59
2022-11-24T18:39:49.577Z,97293.91
2022-11-24T18:42:17.906Z,97292.38
2022-11-24T18:44:48.608Z,97304.88
2022-11-24T18:47:18.068Z,97301.47
2022-11-24T18:49:44.925Z,97312.38
2022-11-24T18:52:11.813Z,97295.75
2022-11-24T18:54:39.155Z,97317.25
2022-11-24T18:57:06.358Z,97303.28
2022-11-24T18:59:33.350Z,97302.38
2022-11-24T19:02:00.221Z,97307.13
2022-11-24T19:04:27.385Z,97306.28
2022-11-24T19:06:54.286Z,97294.22
2022-11-24T19:09:22.848Z,97301.47
2022-11-24T19:11:49.696Z,97300.25
2022-11-24T19:14:19.226Z,97305.03
2022-11-24T19:16:48.159Z,97307.72
2022-11-24T19:19:17.142Z,97305.75
2022-11-24T19:21:44.232Z,97310.81
2022-11-24T19:24:13.396Z,97307.78
2022-11-24T19:26:40.838Z,97308.34
2022-11-24T19:29:08.543Z,97318.06
2022-11-24T19:31:36.100Z,97311.91
2022-11-24T19:34:03.702Z,97314.06
2022-11-24T19:36:30.799Z,97309.81
2022-11-24T19:38:58.707Z,97311.09
2022-11-24T19:41:30.887Z,97308.72
2022-11-24T19:43:58.874Z,97309.81
2022-11-24T19:46:28.048Z,97308.97
2022-11-24T19:48:57.299Z,97308.84
2022-11-24T19:51:30.926Z,97311.94
2022-11-24T19:53:58.591Z,97314.56
2022-11-24T19:56:27.752Z,97319.28
2022-11-24T19:58:56.102Z,97314.31
2022-11-24T20:01:31.312Z,97309.03
2022-11-24T20:04:01.461Z,97300.63
2022-11-24T20:06:34.702Z,97316.09
2022-11-24T20:09:01.902Z,97313.41
2022-11-24T20:11:28.936Z,97318.84
2022-11-24T20:13:56.665Z,97322.53
2022-11-24T20:16:26.734Z,97324.16
2022-11-24T20:19:02.102Z,97326.03
2022-11-24T20:21:32.670Z,97324.03
2022-11-24T20:24:02.228Z,97318.72
2022-11-24T20:26:32.833Z,97329.25
2022-11-24T20:29:00.444Z,97323.84
2022-11-24T20:31:39.461Z,97321.25
2022-11-24T20:34:07.480Z,97314.38
2022-11-24T20:36:36.293Z,97326.91
2022-11-24T20:39:06.789Z,97326.09
2022-11-24T20:41:36.487Z,97322.94
2022-11-24T20:44:07.660Z,97322.44
2022-11-24T20:46:38.203Z,97317.44
2022-11-24T20:49:07.087Z,97319.00
2022-11-24T20:51:37.079Z,97326.53
2022-11-24T20:54:07.165Z,97324.75
2022-11-24T20:56:36.826Z,97312.34
2022-11-24T20:59:04.824Z,97318.97
2022-11-24T21:01:38.847Z,97310.81
2022-11-24T21:04:08.998Z,97321.44
2022-11-24T21:06:36.846Z,97327.94
2022-11-24T21:09:04.876Z,97328.53
2022-11-24T21:11:32.370Z,97316.97
2022-11-24T21:14:00.398Z,97312.47
2022-11-24T21:16:30.161Z,97304.78
2022-11-24T21:18:59.756Z,97312.72
2022-11-24T21:21:34.031Z,97312.16
2022-11-24T21:24:02.905Z,97311.28
2022-11-24T21:26:30.382Z,97316.75
2022-11-24T21:28:58.113Z,97300.47
2022-11-24T21:31:26.006Z,97307.19
2022-11-24T21:33:54.108Z,97308.63
2022-11-24T21:36:23.671Z,97311.31
2022-11-24T21:38:52.288Z,97305.88
2022-11-24T21:41:19.833Z,97316.78
2022-11-24T21:43:46.981Z,97315.13
2022-11-24T21:46:14.191Z,97307.56
2022-11-24T21:48:42.128Z,97308.03
2022-11-24T21:51:15.573Z,97322.47
2022-11-24T21:53:43.858Z,97323.75
2022-11-24T21:56:13.775Z,97312.75
2022-11-24T21:58:48.002Z,97312.88
2022-11-24T22:01:17.273Z,97309.44
2022-11-24T22:03:44.261Z,97308.63
2022-11-24T22:06:11.607Z,97312.72
2022-11-24T22:08:38.929Z,97314.63
2022-11-24T22:11:07.816Z,97325.16
2022-11-24T22:13:34.817Z,97328.81
2022-11-24T22:16:07.831Z,97316.09
2022-11-24T22:18:38.006Z,97322.78
2022-11-24T22:21:06.835Z,97318.41
2022-11-24T22:23:35.249Z,97321.16
2022-11-24T22:26:04.400Z,97323.28
2022-11-24T22:28:35.624Z,97324.78
2022-11-24T22:31:11.088Z,97320.69
2022-11-24T22:33:38.801Z,97314.31
2022-11-24T22:36:05.991Z,97317.00
2022-11-24T22:38:33.780Z,97326.84
2022-11-24T22:41:20.930Z,97332.59
2022-11-24T22:43:47.700Z,97326.72
2022-11-24T22:46:17.553Z,97328.03
2022-11-24T22:48:45.918Z,97322.00
2022-11-24T22:51:15.684Z,97341.13
2022-11-24T22:53:51.060Z,97340.06
2022-11-24T22:56:19.769Z,97338.75
2022-11-24T22:58:47.372Z,97341.38
2022-11-24T23:01:16.521Z,97343.00
2022-11-24T23:03:44.311Z,97345.03
2022-11-24T23:06:25.259Z,97338.06
2022-11-24T23:08:52.881Z,97340.66
2022-11-24T23:11:27.404Z,97343.38
2022-11-24T23:14:00.583Z,97345.16
2022-11-24T23:16:29.235Z,97344.31
2022-11-24T23:18:56.601Z,97345.03
2022-11-24T23:21:28.927Z,97343.25
2022-11-24T23:23:56.196Z,97346.00
2022-11-24T23:26:25.621Z,97348.59
2022-11-24T23:28:52.552Z,97339.03
2022-11-24T23:31:24.291Z,97340.88
2022-11-24T23:33:51.392Z,97364.50
2022-11-24T23:36:20.288Z,97352.00
2022-11-24T23:38:48.478Z,97356.94
2022-11-24T23:41:20.642Z,97367.94
2022-11-24T23:43:48.257Z,97362.13
2022-11-24T23:46:20.682Z,97368.75
2022-11-24T23:48:48.855Z,97364.72
2022-11-24T23:51:17.956Z,97373.25
2022-11-24T23:53:45.649Z,97380.56
2022-11-24T23:56:15.566Z,97378.66
2022-11-24T23:58:43.015Z,97382.81
